Station Historical Data
Daily Summary for November 15, 2017 Units:  English    Metric   Both
« Previous Day
Next Day »
Daily Weekly Monthly Yearly Custom
  High: Low: Average:
Temperature: 56.6 °F 38.3 °F 47.2 °F
Dew Point: 45.7 °F 36.2 °F 40.8 °F
Humidity: 94% 54% 80%
Wind Speed: 4.6mph 0.0mph 0.6mph
Wind Gust: 4.6mph - -
Wind- - WSW
Pressure: 30.26 in 30.12 in -
Precipitation: 0.00 in    
Historical Graphs
 
 
Tabular Data for November 15, 2017
Time Temperature Dew Point Pressure Wind Wind Speed Wind Gust Humidity Rainfall Rate (Hourly) Conditions
00:02 42.8 °F 40.4 °F 30.25 in Calm     91% 0.00 in CLR
00:07 42.7 °F 40.3 °F 30.25 in Calm     91% 0.00 in CLR
00:13 42.5 °F 40.1 °F 30.25 in Calm     91% 0.00 in CLR
00:18 42.5 °F 40.1 °F 30.25 in Calm     91% 0.00 in CLR
00:23 42.3 °F 39.9 °F 30.26 in Calm     91% 0.00 in CLR
00:28 42.3 °F 39.9 °F 30.26 in Calm     91% 0.00 in CLR
00:33 42.2 °F 39.8 °F 30.26 in Calm     91% 0.00 in CLR
00:38 42.2 °F 39.8 °F 30.26 in Calm     91% 0.00 in CLR
00:40 42.2 °F 39.8 °F 30.26 in Calm     91% 0.00 in CLR
00:45 42.3 °F 39.9 °F 30.26 in Calm     91% 0.00 in CLR
00:50 42.3 °F 39.9 °F 30.26 in Calm     91% 0.00 in CLR
00:55 42.1 °F 39.7 °F 30.26 in Calm     91% 0.00 in CLR
01:00 41.8 °F 39.4 °F 30.25 in Calm     91% 0.00 in CLR
01:05 41.6 °F 39.2 °F 30.25 in Calm     91% 0.00 in CLR
01:07 41.7 °F 39.3 °F 30.25 in Calm     91% 0.00 in CLR
01:12 41.7 °F 39.3 °F 30.26 in Calm     91% 0.00 in CLR
01:17 41.6 °F 39.2 °F 30.26 in Calm     91% 0.00 in CLR
01:22 41.5 °F 39.1 °F 30.26 in Calm     91% 0.00 in CLR
01:27 41.4 °F 39.0 °F 30.25 in Calm     91% 0.00 in CLR
01:32 41.3 °F 38.9 °F 30.25 in Calm     91% 0.00 in CLR
01:37 41.2 °F 38.8 °F 30.25 in Calm     91% 0.00 in CLR
01:42 41.1 °F 38.7 °F 30.25 in Calm     91% 0.00 in CLR
01:48 41.1 °F 39.0 °F 30.25 in Calm     92% 0.00 in CLR
01:53 41.1 °F 39.0 °F 30.25 in Calm     92% 0.00 in CLR
01:58 40.9 °F 38.8 °F 30.24 in Calm     92% 0.00 in CLR
02:03 40.9 °F 38.8 °F 30.24 in Calm     92% 0.00 in CLR
02:08 40.9 °F 38.8 °F 30.24 in Calm     92% 0.00 in CLR
02:13 40.8 °F 38.7 °F 30.24 in Calm     92% 0.00 in CLR
02:18 40.9 °F 38.8 °F 30.24 in Calm     92% 0.00 in CLR
02:23 41.0 °F 38.9 °F 30.24 in Calm     92% 0.00 in CLR
02:28 40.9 °F 38.8 °F 30.24 in Calm     92% 0.00 in CLR
02:33 40.8 °F 38.7 °F 30.24 in Calm     92% 0.00 in CLR
02:38 40.8 °F 38.7 °F 30.23 in Calm     92% 0.00 in CLR
02:43 40.8 °F 38.7 °F 30.23 in Calm     92% 0.00 in CLR
02:49 40.7 °F 38.6 °F 30.23 in Calm     92% 0.00 in CLR
02:54 40.7 °F 38.6 °F 30.24 in Calm     92% 0.00 in CLR
02:59 40.8 °F 38.7 °F 30.24 in Calm     92% 0.00 in CLR
03:04 40.8 °F 38.7 °F 30.24 in Calm     92% 0.00 in CLR
03:09 40.7 °F 38.6 °F 30.24 in Calm     92% 0.00 in CLR
03:14 40.5 °F 38.4 °F 30.24 in Calm     92% 0.00 in CLR
03:24 40.3 °F 38.2 °F 30.24 in Calm     92% 0.00 in CLR
03:29 40.2 °F 38.1 °F 30.24 in Calm     92% 0.00 in CLR
03:34 40.3 °F 38.2 °F 30.24 in Calm     92% 0.00 in CLR
03:39 40.3 °F 38.2 °F 30.24 in Calm     92% 0.00 in CLR
03:44 40.4 °F 38.5 °F 30.24 in Calm     93% 0.00 in CLR
03:49 40.4 °F 38.3 °F 30.24 in Calm     92% 0.00 in CLR
03:54 40.5 °F 38.6 °F 30.24 in Calm     93% 0.00 in CLR
03:59 40.4 °F 38.3 °F 30.24 in Calm     92% 0.00 in CLR
04:04 40.3 °F 38.2 °F 30.24 in Calm     92% 0.00 in CLR
04:09 40.0 °F 37.9 °F 30.24 in Calm     92% 0.00 in CLR
04:14 39.8 °F 37.7 °F 30.24 in Calm     92% 0.00 in CLR
04:20 39.6 °F 37.5 °F 30.25 in Calm     92% 0.00 in CLR
04:25 39.4 °F 37.3 °F 30.24 in Calm     92% 0.00 in CLR
04:30 39.1 °F 37.0 °F 30.24 in Calm     92% 0.00 in CLR
04:35 38.9 °F 36.8 °F 30.24 in Calm     92% 0.00 in CLR
04:40 38.7 °F 36.6 °F 30.24 in Calm     92% 0.00 in CLR
04:45 38.7 °F 36.6 °F 30.24 in Calm     92% 0.00 in CLR
04:50 38.8 °F 36.7 °F 30.24 in Calm     92% 0.00 in CLR
04:55 38.9 °F 36.8 °F 30.24 in Calm     92% 0.00 in CLR
05:00 39.0 °F 37.1 °F 30.24 in Calm     93% 0.00 in CLR
05:05 39.5 °F 37.6 °F 30.24 in Calm     93% 0.00 in CLR
05:10 39.5 °F 37.6 °F 30.24 in Calm     93% 0.00 in CLR
05:15 39.2 °F 37.3 °F 30.24 in Calm     93% 0.00 in CLR
05:21 38.9 °F 36.8 °F 30.24 in Calm     92% 0.00 in CLR
05:26 38.7 °F 36.6 °F 30.24 in Calm     92% 0.00 in CLR
05:27 38.7 °F 36.6 °F 30.24 in Calm     92% 0.00 in CLR
05:32 38.5 °F 36.4 °F 30.24 in Calm     92% 0.00 in CLR
05:37 38.4 °F 36.3 °F 30.24 in Calm     92% 0.00 in CLR
05:42 38.3 °F 36.2 °F 30.24 in Calm     92% 0.00 in CLR
05:47 38.5 °F 36.7 °F 30.24 in Calm     93% 0.00 in CLR
05:52 38.8 °F 36.9 °F 30.24 in Calm     93% 0.00 in CLR
05:57 39.1 °F 37.2 °F 30.24 in Calm     93% 0.00 in CLR
06:02 39.1 °F 37.2 °F 30.24 in Calm     93% 0.00 in CLR
06:07 39.1 °F 37.2 °F 30.24 in Calm     93% 0.00 in CLR
06:12 39.0 °F 37.1 °F 30.24 in Calm     93% 0.00 in CLR
06:17 38.9 °F 37.0 °F 30.24 in Calm     93% 0.00 in CLR
06:22 38.8 °F 36.9 °F 30.24 in Calm     93% 0.00 in CLR
06:27 38.8 °F 36.9 °F 30.24 in Calm     93% 0.00 in CLR
06:33 39.0 °F 37.1 °F 30.23 in Calm     93% 0.00 in CLR
06:38 38.9 °F 37.0 °F 30.23 in Calm     93% 0.00 in CLR
06:43 38.6 °F 36.8 °F 30.23 in Calm     93% 0.00 in CLR
06:48 38.5 °F 36.7 °F 30.23 in Calm     93% 0.00 in CLR
06:53 38.6 °F 36.8 °F 30.24 in Calm     93% 0.00 in CLR
06:58 38.8 °F 36.9 °F 30.24 in Calm     93% 0.00 in CLR
07:03 38.9 °F 37.0 °F 30.24 in Calm     93% 0.00 in FEW
07:08 38.9 °F 37.0 °F 30.24 in Calm     93% 0.00 in FEW
07:13 39.0 °F 37.1 °F 30.24 in Calm     93% 0.00 in FEW
07:18 39.0 °F 37.1 °F 30.25 in Calm     93% 0.00 in FEW
07:23 39.1 °F 37.2 °F 30.25 in Calm     93% 0.00 in FEW
07:28 39.1 °F 37.2 °F 30.25 in Calm     93% 0.00 in FEW
07:33 39.0 °F 37.1 °F 30.25 in Calm     93% 0.00 in FEW
07:39 39.1 °F 37.2 °F 30.25 in Calm     93% 0.00 in FEW
07:44 39.0 °F 37.1 °F 30.25 in Calm     93% 0.00 in FEW
07:49 39.0 °F 37.1 °F 30.25 in Calm     93% 0.00 in FEW
07:54 39.1 °F 37.2 °F 30.25 in Calm     93% 0.00 in FEW
07:59 39.3 °F 37.4 °F 30.25 in Calm     93% 0.00 in FEW
08:04 39.8 °F 37.9 °F 30.25 in Calm     93% 0.00 in SCT
08:09 40.3 °F 38.7 °F 30.25 in Calm     94% 0.00 in SCT
08:14 40.5 °F 38.9 °F 30.25 in East 1.2 mph   94% 0.00 in SCT
08:19 40.8 °F 39.2 °F 30.25 in East 1.2 mph   94% 0.00 in SCT
08:24 41.1 °F 39.5 °F 30.25 in North 1.2 mph   94% 0.00 in SCT
08:29 41.4 °F 39.8 °F 30.25 in West 1.2 mph   94% 0.00 in SCT
08:34 41.8 °F 40.2 °F 30.25 in West 1.2 mph   94% 0.00 in SCT
08:40 42.1 °F 40.5 °F 30.25 in West 1.2 mph   94% 0.00 in SCT
08:45 42.5 °F 40.6 °F 30.25 in West 1.2 mph   93% 0.00 in SCT
08:50 42.9 °F 41.0 °F 30.26 in West 1.2 mph   93% 0.00 in SCT
08:55 43.5 °F 41.6 °F 30.26 in West 1.2 mph   93% 0.00 in SCT
09:00 44.1 °F 41.9 °F 30.26 in West 1.2 mph 1.2 mph 92% 0.00 in SCT
09:05 44.6 °F 42.1 °F 30.26 in West 1.2 mph   91% 0.00 in SCT
09:10 44.8 °F 41.5 °F 30.26 in West 2.3 mph 2.3 mph 88% 0.00 in SCT
09:15 45.1 °F 42.1 °F 30.26 in West 2.3 mph 2.3 mph 89% 0.00 in BKN
09:20 45.6 °F 42.3 °F 30.26 in West 1.2 mph   88% 0.00 in BKN
09:25 46.1 °F 42.4 °F 30.26 in West 1.2 mph   87% 0.00 in BKN
09:30 47.0 °F 43.0 °F 30.26 in WNW 1.2 mph   86% 0.00 in BKN
09:35 47.4 °F 42.5 °F 30.26 in WNW 1.2 mph 1.2 mph 83% 0.00 in BKN
09:40 47.8 °F 42.3 °F 30.25 in WNW 1.2 mph   81% 0.00 in BKN
09:46 48.4 °F 42.2 °F 30.26 in WNW 1.2 mph 1.2 mph 79% 0.00 in BKN
09:51 48.6 °F 41.4 °F 30.25 in West 2.3 mph 2.3 mph 76% 0.00 in BKN
09:56 48.7 °F 41.5 °F 30.25 in West 2.3 mph 2.3 mph 76% 0.00 in BKN
09:57 48.7 °F 41.5 °F 30.25 in WNW 2.3 mph 2.3 mph 76% 0.00 in BKN
10:02 48.9 °F 41.7 °F 30.25 in WNW 2.3 mph 2.3 mph 76% 0.00 in OVC
10:07 48.7 °F 40.8 °F 30.25 in WNW 2.3 mph 2.3 mph 74% 0.00 in OVC
10:13 48.9 °F 41.0 °F 30.25 in West 4.6 mph 4.6 mph 74% 0.00 in OVC
10:18 49.5 °F 40.5 °F 30.25 in WNW 4.6 mph 4.6 mph 71% 0.00 in OVC
10:23 49.9 °F 40.9 °F 30.25 in WNW 3.5 mph 3.5 mph 71% 0.00 in OVC
10:28 50.4 °F 41.3 °F 30.25 in WNW 3.5 mph 3.5 mph 71% 0.00 in OVC
10:33 50.6 °F 41.2 °F 30.25 in WNW 2.3 mph 2.3 mph 70% 0.00 in OVC
10:38 51.0 °F 40.8 °F 30.25 in WNW 2.3 mph 2.3 mph 68% 0.00 in OVC
10:43 51.2 °F 41.7 °F 30.25 in WNW 2.3 mph   70% 0.00 in OVC
10:48 51.7 °F 41.9 °F 30.24 in West 2.3 mph 2.3 mph 69% 0.00 in OVC
10:53 52.1 °F 42.2 °F 30.24 in WNW 1.2 mph 1.2 mph 69% 0.00 in OVC
10:58 51.9 °F 41.3 °F 30.24 in West 2.3 mph 2.3 mph 67% 0.00 in OVC
11:03 51.9 °F 41.3 °F 30.24 in West 2.3 mph 2.3 mph 67% 0.00 in OVC
11:08 51.7 °F 41.1 °F 30.24 in WNW 3.5 mph 3.5 mph 67% 0.00 in OVC
11:13 51.9 °F 40.5 °F 30.24 in WNW 3.5 mph   65% 0.00 in OVC
11:19 52.1 °F 41.1 °F 30.23 in WNW 2.3 mph 2.3 mph 66% 0.00 in OVC
11:24 52.1 °F 41.5 °F 30.23 in NW 1.2 mph 1.2 mph 67% 0.00 in OVC
11:29 52.4 °F 41.4 °F 30.22 in West 2.3 mph 2.3 mph 66% 0.00 in OVC
11:34 52.4 °F 41.0 °F 30.22 in NW 2.3 mph   65% 0.00 in OVC
11:39 52.5 °F 41.1 °F 30.22 in NNW 1.2 mph 1.2 mph 65% 0.00 in OVC
11:44 52.3 °F 40.9 °F 30.22 in WNW 3.5 mph 3.5 mph 65% 0.00 in OVC
11:49 52.5 °F 41.9 °F 30.22 in NW 3.5 mph 3.5 mph 67% 0.00 in OVC
11:54 52.9 °F 40.6 °F 30.22 in NW 2.3 mph 2.3 mph 63% 0.00 in OVC
11:59 52.8 °F 40.5 °F 30.21 in West 3.5 mph 3.5 mph 63% 0.00 in OVC
12:04 52.8 °F 40.5 °F 30.21 in NNW 3.5 mph 3.5 mph 63% 0.00 in OVC
12:09 52.9 °F 41.0 °F 30.21 in NNW 3.5 mph 3.5 mph 64% 0.00 in OVC
12:15 52.9 °F 41.0 °F 30.20 in NW 2.3 mph 2.3 mph 64% 0.00 in OVC
12:20 52.8 °F 40.5 °F 30.20 in Calm   1.0 mph 63% 0.00 in OVC
12:25 52.7 °F 40.9 °F 30.19 in Calm   1.0 mph 64% 0.00 in OVC
12:30 52.8 °F 40.1 °F 30.19 in WNW 1.2 mph 1.2 mph 62% 0.00 in OVC
12:35 52.8 °F 41.0 °F 30.19 in West 2.3 mph   64% 0.00 in OVC
12:40 53.0 °F 40.7 °F 30.19 in West 2.3 mph 2.3 mph 63% 0.00 in OVC
12:45 53.1 °F 40.4 °F 30.19 in WNW 2.3 mph   62% 0.00 in OVC
12:50 53.2 °F 40.5 °F 30.18 in NW 2.3 mph 2.3 mph 62% 0.00 in OVC
12:55 53.4 °F 41.5 °F 30.18 in ESE 2.3 mph 2.3 mph 64% 0.00 in OVC
13:00 54.2 °F 41.0 °F 30.18 in ENE 2.3 mph   61% 0.00 in OVC
13:05 55.0 °F 40.9 °F 30.18 in NNW 2.3 mph 2.3 mph 59% 0.00 in BKN
13:10 55.3 °F 41.2 °F 30.18 in NW 1.2 mph   59% 0.00 in BKN
13:15 55.6 °F 42.4 °F 30.18 in NW 2.3 mph   61% 0.00 in BKN
13:20 55.6 °F 40.1 °F 30.18 in West 2.3 mph 2.3 mph 56% 0.00 in BKN
13:26 55.3 °F 40.8 °F 30.17 in WSW 2.3 mph 2.3 mph 58% 0.00 in BKN
13:31 55.2 °F 40.7 °F 30.18 in SE 2.3 mph 2.3 mph 58% 0.00 in BKN
13:36 55.4 °F 40.9 °F 30.17 in ENE 1.2 mph 1.2 mph 58% 0.00 in BKN
13:41 55.3 °F 39.9 °F 30.17 in NNW 3.5 mph 3.5 mph 56% 0.00 in BKN
13:46 55.0 °F 40.0 °F 30.17 in NNW 3.5 mph 3.5 mph 57% 0.00 in BKN
13:51 54.7 °F 39.8 °F 30.17 in NE 2.3 mph 2.3 mph 57% 0.00 in BKN
13:56 54.6 °F 40.1 °F 30.16 in East 2.3 mph 2.3 mph 58% 0.00 in BKN
14:01 55.1 °F 40.6 °F 30.16 in ENE 2.3 mph   58% 0.00 in BKN
14:06 55.6 °F 40.1 °F 30.16 in NNW 1.2 mph 1.2 mph 56% 0.00 in BKN
14:11 55.7 °F 40.7 °F 30.16 in NW 1.2 mph   57% 0.00 in BKN
14:16 55.7 °F 39.3 °F 30.16 in NW 1.2 mph   54% 0.00 in BKN
14:21 55.5 °F 40.0 °F 30.15 in NW 1.2 mph   56% 0.00 in BKN
14:26 55.4 °F 39.5 °F 30.15 in WNW 1.2 mph 1.2 mph 55% 0.00 in BKN
14:31 55.5 °F 40.0 °F 30.15 in West 1.2 mph 1.2 mph 56% 0.00 in BKN
14:37 55.7 °F 40.2 °F 30.15 in West 1.2 mph 1.2 mph 56% 0.00 in BKN
14:42 55.9 °F 40.4 °F 30.15 in West 1.2 mph 1.2 mph 56% 0.00 in BKN
14:47 55.9 °F 40.4 °F 30.15 in WNW 2.3 mph 2.3 mph 56% 0.00 in BKN
14:52 55.9 °F 40.9 °F 30.15 in West 2.3 mph   57% 0.00 in BKN
14:57 56.0 °F 41.0 °F 30.14 in West 2.3 mph 2.3 mph 57% 0.00 in BKN
15:02 56.1 °F 40.6 °F 30.14 in West 2.3 mph   56% 0.00 in BKN
15:07 56.2 °F 42.1 °F 30.13 in WNW 1.2 mph   59% 0.00 in BKN
15:12 56.3 °F 41.3 °F 30.13 in WNW 1.2 mph   57% 0.00 in BKN
15:17 56.4 °F 40.4 °F 30.13 in NW 1.2 mph   55% 0.00 in BKN
15:22 56.5 °F 41.4 °F 30.14 in NNE 1.2 mph   57% 0.00 in BKN
15:27 56.6 °F 42.0 °F 30.13 in North 1.2 mph   58% 0.00 in BKN
15:32 56.6 °F 41.5 °F 30.14 in Calm     57% 0.00 in BKN
15:37 56.5 °F 41.4 °F 30.14 in Calm     57% 0.00 in BKN
15:43 56.4 °F 41.3 °F 30.14 in Calm     57% 0.00 in BKN
15:48 56.4 °F 41.8 °F 30.14 in Calm     58% 0.00 in BKN
15:53 56.3 °F 43.0 °F 30.14 in Calm     61% 0.00 in BKN
15:58 56.2 °F 42.1 °F 30.13 in Calm     59% 0.00 in BKN
16:03 56.1 °F 42.4 °F 30.14 in Calm     60% 0.00 in BKN
16:08 56.1 °F 41.5 °F 30.14 in Calm     58% 0.00 in BKN
16:13 56.0 °F 42.3 °F 30.13 in Calm     60% 0.00 in BKN
16:18 55.8 °F 42.5 °F 30.14 in Calm     61% 0.00 in BKN
16:23 55.7 °F 42.9 °F 30.14 in Calm     62% 0.00 in BKN
16:28 55.5 °F 42.3 °F 30.13 in Calm     61% 0.00 in BKN
16:38 54.9 °F 42.5 °F 30.13 in Calm     63% 0.00 in BKN
16:43 54.6 °F 42.3 °F 30.13 in Calm     63% 0.00 in BKN
16:48 54.3 °F 42.4 °F 30.13 in Calm     64% 0.00 in BKN
16:54 54.0 °F 42.1 °F 30.13 in Calm     64% 0.00 in BKN
16:59 53.9 °F 42.0 °F 30.13 in Calm     64% 0.00 in BKN
17:04 53.7 °F 42.2 °F 30.12 in Calm     65% 0.00 in BKN
17:09 53.4 °F 42.7 °F 30.13 in Calm     67% 0.00 in BKN
17:14 53.1 °F 42.4 °F 30.13 in Calm     67% 0.00 in BKN
17:19 52.8 °F 42.1 °F 30.12 in Calm     67% 0.00 in BKN
17:24 52.5 °F 42.2 °F 30.14 in NNE 1.2 mph   68% 0.00 in BKN
17:29 52.4 °F 42.1 °F 30.14 in NNE 1.2 mph   68% 0.00 in BKN
17:34 52.2 °F 42.0 °F 30.14 in Calm     68% 0.00 in BKN
17:39 52.0 °F 42.5 °F 30.14 in Calm     70% 0.00 in BKN
17:44 51.8 °F 42.7 °F 30.14 in Calm     71% 0.00 in BKN
17:49 51.5 °F 42.4 °F 30.15 in Calm     71% 0.00 in BKN
17:54 51.4 °F 42.7 °F 30.15 in Calm     72% 0.00 in BKN
17:59 51.4 °F 42.7 °F 30.15 in Calm     72% 0.00 in BKN
18:05 51.2 °F 42.8 °F 30.16 in Calm     73% 0.00 in BKN
18:10 50.9 °F 42.6 °F 30.15 in Calm     73% 0.00 in BKN
18:15 50.5 °F 42.5 °F 30.16 in Calm     74% 0.00 in BKN
18:20 50.3 °F 42.7 °F 30.15 in Calm     75% 0.00 in BKN
18:25 50.1 °F 42.8 °F 30.16 in Calm     76% 0.00 in BKN
18:30 49.9 °F 42.6 °F 30.16 in Calm     76% 0.00 in BKN
18:35 49.8 °F 42.5 °F 30.16 in Calm     76% 0.00 in BKN
18:40 49.7 °F 42.1 °F 30.16 in Calm     75% 0.00 in BKN
18:45 49.5 °F 42.2 °F 30.16 in Calm     76% 0.00 in BKN
18:50 49.4 °F 42.1 °F 30.16 in Calm     76% 0.00 in BKN
18:55 49.3 °F 42.7 °F 30.17 in Calm     78% 0.00 in BKN
19:00 49.3 °F 43.1 °F 30.16 in Calm     79% 0.00 in BKN
19:05 49.1 °F 42.9 °F 30.16 in Calm     79% 0.00 in BKN
19:11 48.9 °F 43.0 °F 30.16 in Calm     80% 0.00 in BKN
19:16 48.7 °F 43.1 °F 30.16 in Calm     81% 0.00 in BKN
19:21 48.5 °F 42.9 °F 30.16 in Calm     81% 0.00 in BKN
19:26 48.4 °F 43.2 °F 30.16 in Calm     82% 0.00 in BKN
19:31 48.2 °F 43.0 °F 30.16 in Calm     82% 0.00 in BKN
19:36 48.1 °F 43.2 °F 30.16 in Calm     83% 0.00 in BKN
19:41 47.9 °F 43.0 °F 30.16 in Calm     83% 0.00 in BKN
19:46 47.9 °F 43.3 °F 30.16 in Calm     84% 0.00 in BKN
19:51 47.9 °F 43.3 °F 30.16 in Calm     84% 0.00 in BKN
19:56 47.9 °F 43.6 °F 30.16 in Calm     85% 0.00 in BKN
20:01 47.8 °F 43.5 °F 30.15 in Calm     85% 0.00 in BKN
20:06 47.8 °F 43.5 °F 30.16 in Calm     85% 0.00 in BKN
20:11 47.7 °F 43.4 °F 30.16 in Calm     85% 0.00 in BKN
20:17 47.6 °F 43.0 °F 30.16 in Calm     84% 0.00 in BKN
20:22 47.5 °F 42.9 °F 30.16 in Calm     84% 0.00 in BKN
20:27 47.5 °F 43.2 °F 30.16 in Calm     85% 0.00 in BKN
20:32 47.5 °F 43.2 °F 30.16 in Calm     85% 0.00 in BKN
20:37 47.6 °F 43.3 °F 30.16 in Calm     85% 0.00 in BKN
20:42 47.7 °F 43.4 °F 30.16 in Calm     85% 0.00 in BKN
20:47 47.8 °F 43.5 °F 30.16 in Calm     85% 0.00 in BKN
20:52 47.9 °F 43.6 °F 30.16 in Calm     85% 0.00 in BKN
20:57 48.0 °F 43.4 °F 30.16 in Calm     84% 0.00 in BKN
21:02 48.1 °F 43.5 °F 30.16 in Calm     84% 0.00 in BKN
21:13 48.3 °F 44.0 °F 30.16 in Calm     85% 0.00 in BKN
21:18 48.4 °F 43.8 °F 30.16 in Calm     84% 0.00 in BKN
21:28 48.5 °F 44.2 °F 30.16 in Calm     85% 0.00 in BKN
21:33 48.7 °F 44.4 °F 30.16 in Calm     85% 0.00 in BKN
21:38 48.9 °F 44.6 °F 30.16 in Calm     85% 0.00 in BKN
21:43 49.0 °F 44.7 °F 30.16 in Calm     85% 0.00 in BKN
21:48 49.2 °F 45.2 °F 30.16 in Calm     86% 0.00 in BKN
21:53 49.3 °F 45.0 °F 30.16 in Calm     85% 0.00 in BKN
21:58 49.3 °F 45.3 °F 30.16 in Calm     86% 0.00 in BKN
22:03 49.6 °F 45.3 °F 30.16 in Calm     85% 0.00 in BKN
22:08 49.9 °F 45.3 °F 30.16 in Calm     84% 0.00 in BKN
22:15 50.0 °F 45.7 °F 30.16 in Calm     85% 0.00 in BKN
22:20 50.0 °F 45.4 °F 30.16 in Calm     84% 0.00 in BKN
22:23 50.0 °F 45.4 °F 30.16 in Calm     84% 0.00 in BKN
22:28 50.0 °F 45.0 °F 30.16 in Calm     83% 0.00 in BKN
22:33 50.1 °F 44.8 °F 30.16 in Calm     82% 0.00 in BKN
22:36 50.2 °F 44.9 °F 30.16 in Calm     82% 0.00 in BKN
22:41 50.3 °F 45.3 °F 30.16 in Calm     83% 0.00 in BKN
22:46 50.2 °F 44.9 °F 30.16 in Calm     82% 0.00 in BKN
22:51 50.1 °F 44.5 °F 30.16 in Calm     81% 0.00 in BKN
22:56 50.1 °F 44.5 °F 30.16 in Calm     81% 0.00 in BKN
23:01 50.0 °F 44.1 °F 30.16 in Calm     80% 0.00 in BKN
23:06 50.0 °F 44.1 °F 30.16 in Calm     80% 0.00 in BKN
23:11 50.1 °F 44.8 °F 30.16 in Calm     82% 0.00 in BKN
23:16 50.1 °F 44.8 °F 30.16 in Calm     82% 0.00 in BKN
23:21 50.1 °F 44.8 °F 30.15 in Calm     82% 0.00 in BKN
23:27 50.1 °F 45.1 °F 30.15 in Calm     83% 0.00 in BKN
23:32 50.1 °F 45.1 °F 30.15 in Calm     83% 0.00 in BKN
23:37 50.1 °F 45.1 °F 30.15 in Calm     83% 0.00 in BKN
23:42 50.1 °F 45.1 °F 30.15 in Calm     83% 0.00 in BKN
23:47 50.1 °F 44.8 °F 30.15 in Calm     82% 0.00 in BKN
23:52 50.1 °F 44.8 °F 30.15 in Calm     82% 0.00 in BKN
23:57 50.0 °F 44.4 °F 30.14 in Calm     81% 0.00 in BKN
Piedmont Bend
Compliments of Weather Underground - 2 mb